sensor_id;sensor_type;location;lat;lon;timestamp;temperature;humidity
68098;DHT22;54886;47.036;15.466;2022-08-19T00:02:24;21.58;64.28
68098;DHT22;54886;47.036;15.466;2022-08-19T00:04:51;21.54;64.06
68098;DHT22;54886;47.036;15.466;2022-08-19T00:07:20;21.50;64.97
68098;DHT22;54886;47.036;15.466;2022-08-19T00:09:46;21.54;64.20
68098;DHT22;54886;47.036;15.466;2022-08-19T00:12:12;21.51;64.45
68098;DHT22;54886;47.036;15.466;2022-08-19T00:14:38;21.50;64.39
68098;DHT22;54886;47.036;15.466;2022-08-19T00:17:05;21.51;63.07
68098;DHT22;54886;47.036;15.466;2022-08-19T00:19:32;21.48;63.82
68098;DHT22;54886;47.036;15.466;2022-08-19T00:21:58;21.54;62.95
68098;DHT22;54886;47.036;15.466;2022-08-19T00:24:24;21.53;63.92
68098;DHT22;54886;47.036;15.466;2022-08-19T00:26:50;21.48;65.14
68098;DHT22;54886;47.036;15.466;2022-08-19T00:29:18;21.44;64.84
68098;DHT22;54886;47.036;15.466;2022-08-19T00:31:45;21.46;64.27
68098;DHT22;54886;47.036;15.466;2022-08-19T00:34:12;21.50;62.78
68098;DHT22;54886;47.036;15.466;2022-08-19T00:36:39;21.47;64.91
68098;DHT22;54886;47.036;15.466;2022-08-19T00:39:04;21.36;66.10
68098;DHT22;54886;47.036;15.466;2022-08-19T00:41:30;21.33;65.72
68098;DHT22;54886;47.036;15.466;2022-08-19T00:44:05;21.36;66.20
68098;DHT22;54886;47.036;15.466;2022-08-19T00:46:32;21.27;65.30
68098;DHT22;54886;47.036;15.466;2022-08-19T00:48:58;21.26;64.61
68098;DHT22;54886;47.036;15.466;2022-08-19T00:51:27;21.23;67.51
68098;DHT22;54886;47.036;15.466;2022-08-19T00:53:56;21.23;67.38
68098;DHT22;54886;47.036;15.466;2022-08-19T00:56:24;21.13;67.99
68098;DHT22;54886;47.036;15.466;2022-08-19T00:58:52;21.05;68.48
68098;DHT22;54886;47.036;15.466;2022-08-19T01:01:19;21.06;68.23
68098;DHT22;54886;47.036;15.466;2022-08-19T01:03:44;21.07;67.78
68098;DHT22;54886;47.036;15.466;2022-08-19T01:06:09;21.06;65.69
68098;DHT22;54886;47.036;15.466;2022-08-19T01:08:35;21.14;65.57
68098;DHT22;54886;47.036;15.466;2022-08-19T01:11:00;21.12;65.69
68098;DHT22;54886;47.036;15.466;2022-08-19T01:13:32;21.13;67.11
68098;DHT22;54886;47.036;15.466;2022-08-19T01:16:01;21.06;68.34
68098;DHT22;54886;47.036;15.466;2022-08-19T01:18:27;21.03;66.76
68098;DHT22;54886;47.036;15.466;2022-08-19T01:20:56;21.07;67.21
68098;DHT22;54886;47.036;15.466;2022-08-19T01:23:23;21.12;65.80
68098;DHT22;54886;47.036;15.466;2022-08-19T01:26:15;21.16;67.27
68098;DHT22;54886;47.036;15.466;2022-08-19T01:28:42;21.10;65.60
68098;DHT22;54886;47.036;15.466;2022-08-19T01:31:09;21.12;65.42
68098;DHT22;54886;47.036;15.466;2022-08-19T01:33:37;21.14;63.80
68098;DHT22;54886;47.036;15.466;2022-08-19T01:36:14;21.16;66.69
68098;DHT22;54886;47.036;15.466;2022-08-19T01:38:40;21.09;67.11
68098;DHT22;54886;47.036;15.466;2022-08-19T01:41:07;21.05;65.95
68098;DHT22;54886;47.036;15.466;2022-08-19T01:43:32;21.12;64.01
68098;DHT22;54886;47.036;15.466;2022-08-19T01:45:58;20.98;67.10
68098;DHT22;54886;47.036;15.466;2022-08-19T01:48:23;20.92;67.94
68098;DHT22;54886;47.036;15.466;2022-08-19T01:50:49;20.91;67.39
68098;DHT22;54886;47.036;15.466;2022-08-19T01:53:15;20.95;65.90
68098;DHT22;54886;47.036;15.466;2022-08-19T01:55:42;20.96;66.28
68098;DHT22;54886;47.036;15.466;2022-08-19T01:58:14;20.91;66.80
68098;DHT22;54886;47.036;15.466;2022-08-19T02:00:41;20.92;65.66
68098;DHT22;54886;47.036;15.466;2022-08-19T02:03:07;20.86;66.82
68098;DHT22;54886;47.036;15.466;2022-08-19T02:05:34;20.89;65.33
68098;DHT22;54886;47.036;15.466;2022-08-19T02:07:59;20.93;64.98
68098;DHT22;54886;47.036;15.466;2022-08-19T02:10:25;20.98;64.51
68098;DHT22;54886;47.036;15.466;2022-08-19T02:12:50;20.92;66.88
68098;DHT22;54886;47.036;15.466;2022-08-19T02:15:17;20.91;66.23
68098;DHT22;54886;47.036;15.466;2022-08-19T02:17:44;20.86;66.57
68098;DHT22;54886;47.036;15.466;2022-08-19T02:20:10;20.93;65.80
68098;DHT22;54886;47.036;15.466;2022-08-19T02:22:36;20.88;65.67
68098;DHT22;54886;47.036;15.466;2022-08-19T02:25:02;20.88;64.00
68098;DHT22;54886;47.036;15.466;2022-08-19T02:27:29;20.86;66.59
68098;DHT22;54886;47.036;15.466;2022-08-19T02:29:55;20.85;66.38
68098;DHT22;54886;47.036;15.466;2022-08-19T02:32:20;20.88;64.87
68098;DHT22;54886;47.036;15.466;2022-08-19T02:34:46;20.89;65.95
68098;DHT22;54886;47.036;15.466;2022-08-19T02:37:12;20.95;63.85
68098;DHT22;54886;47.036;15.466;2022-08-19T02:39:56;20.93;64.79
68098;DHT22;54886;47.036;15.466;2022-08-19T02:42:22;20.95;64.43
68098;DHT22;54886;47.036;15.466;2022-08-19T02:44:48;20.98;63.20
68098;DHT22;54886;47.036;15.466;2022-08-19T02:47:13;20.98;64.24
68098;DHT22;54886;47.036;15.466;2022-08-19T02:49:40;20.96;64.42
68098;DHT22;54886;47.036;15.466;2022-08-19T02:52:07;20.98;64.26
68098;DHT22;54886;47.036;15.466;2022-08-19T02:54:33;21.00;64.34
68098;DHT22;54886;47.036;15.466;2022-08-19T02:56:58;20.89;67.33
68098;DHT22;54886;47.036;15.466;2022-08-19T02:59:24;20.86;67.33
68098;DHT22;54886;47.036;15.466;2022-08-19T03:01:52;20.78;68.21
68098;DHT22;54886;47.036;15.466;2022-08-19T03:04:17;20.74;68.89
68098;DHT22;54886;47.036;15.466;2022-08-19T03:06:46;20.78;66.43
68098;DHT22;54886;47.036;15.466;2022-08-19T03:09:12;20.81;67.97
68098;DHT22;54886;47.036;15.466;2022-08-19T03:11:39;20.75;68.69
68098;DHT22;54886;47.036;15.466;2022-08-19T03:14:05;20.67;68.48
68098;DHT22;54886;47.036;15.466;2022-08-19T03:16:34;20.76;65.78
68098;DHT22;54886;47.036;15.466;2022-08-19T03:19:01;20.75;68.01
68098;DHT22;54886;47.036;15.466;2022-08-19T03:21:29;20.64;69.39
68098;DHT22;54886;47.036;15.466;2022-08-19T03:23:57;20.61;70.08
68098;DHT22;54886;47.036;15.466;2022-08-19T03:26:23;20.68;66.20
68098;DHT22;54886;47.036;15.466;2022-08-19T03:28:48;20.58;70.32
68098;DHT22;54886;47.036;15.466;2022-08-19T03:31:17;20.55;70.12
68098;DHT22;54886;47.036;15.466;2022-08-19T03:33:43;20.50;70.61
68098;DHT22;54886;47.036;15.466;2022-08-19T03:36:14;20.55;67.28
68098;DHT22;54886;47.036;15.466;2022-08-19T03:38:48;20.55;69.44
68098;DHT22;54886;47.036;15.466;2022-08-19T03:41:19;20.45;71.01
68098;DHT22;54886;47.036;15.466;2022-08-19T03:43:45;20.50;70.84
68098;DHT22;54886;47.036;15.466;2022-08-19T03:46:17;20.54;68.02
68098;DHT22;54886;47.036;15.466;2022-08-19T03:48:46;20.55;69.65
68098;DHT22;54886;47.036;15.466;2022-08-19T03:51:21;20.51;70.80
68098;DHT22;54886;47.036;15.466;2022-08-19T03:53:47;20.59;67.11
68098;DHT22;54886;47.036;15.466;2022-08-19T03:56:14;20.54;68.15
68098;DHT22;54886;47.036;15.466;2022-08-19T03:58:40;20.58;67.49
68098;DHT22;54886;47.036;15.466;2022-08-19T04:01:14;20.55;69.79
68098;DHT22;54886;47.036;15.466;2022-08-19T04:03:40;20.50;70.44
68098;DHT22;54886;47.036;15.466;2022-08-19T04:06:14;20.43;70.71
68098;DHT22;54886;47.036;15.466;2022-08-19T04:08:44;20.41;70.68
68098;DHT22;54886;47.036;15.466;2022-08-19T04:11:12;20.37;71.06
68098;DHT22;54886;47.036;15.466;2022-08-19T04:13:38;20.37;71.06
68098;DHT22;54886;47.036;15.466;2022-08-19T04:16:05;20.34;71.19
68098;DHT22;54886;47.036;15.466;2022-08-19T04:18:32;20.29;71.25
68098;DHT22;54886;47.036;15.466;2022-08-19T04:20:58;20.31;71.35
68098;DHT22;54886;47.036;15.466;2022-08-19T04:23:24;20.33;70.96
68098;DHT22;54886;47.036;15.466;2022-08-19T04:25:49;20.30;70.94
68098;DHT22;54886;47.036;15.466;2022-08-19T04:28:15;20.31;69.68
68098;DHT22;54886;47.036;15.466;2022-08-19T04:30:46;20.23;71.44
68098;DHT22;54886;47.036;15.466;2022-08-19T04:33:13;20.22;71.13
68098;DHT22;54886;47.036;15.466;2022-08-19T04:35:41;20.22;71.95
68098;DHT22;54886;47.036;15.466;2022-08-19T04:38:08;20.26;71.38
68098;DHT22;54886;47.036;15.466;2022-08-19T04:40:39;20.31;71.43
68098;DHT22;54886;47.036;15.466;2022-08-19T04:43:44;20.29;71.40
68098;DHT22;54886;47.036;15.466;2022-08-19T04:46:14;20.31;71.83
68098;DHT22;54886;47.036;15.466;2022-08-19T04:48:40;20.31;71.38
68098;DHT22;54886;47.036;15.466;2022-08-19T04:51:08;20.30;71.80
68098;DHT22;54886;47.036;15.466;2022-08-19T04:53:36;20.29;72.48
68098;DHT22;54886;47.036;15.466;2022-08-19T04:56:11;20.40;69.46
68098;DHT22;54886;47.036;15.466;2022-08-19T04:58:38;20.44;69.62
68098;DHT22;54886;47.036;15.466;2022-08-19T05:01:06;20.47;70.41
68098;DHT22;54886;47.036;15.466;2022-08-19T05:03:34;20.48;69.53
68098;DHT22;54886;47.036;15.466;2022-08-19T05:06:07;20.52;71.07
68098;DHT22;54886;47.036;15.466;2022-08-19T05:08:34;20.57;71.06
68098;DHT22;54886;47.036;15.466;2022-08-19T05:11:00;20.59;71.13
68098;DHT22;54886;47.036;15.466;2022-08-19T05:13:25;20.64;70.58
68098;DHT22;54886;47.036;15.466;2022-08-19T05:15:56;20.67;68.86
68098;DHT22;54886;47.036;15.466;2022-08-19T05:18:22;20.72;69.43
68098;DHT22;54886;47.036;15.466;2022-08-19T05:21:11;20.75;69.66
68098;DHT22;54886;47.036;15.466;2022-08-19T05:23:55;20.75;71.09
68098;DHT22;54886;47.036;15.466;2022-08-19T05:26:21;20.75;67.47
68098;DHT22;54886;47.036;15.466;2022-08-19T05:28:48;20.78;67.64
68098;DHT22;54886;47.036;15.466;2022-08-19T05:31:13;20.81;69.76
68098;DHT22;54886;47.036;15.466;2022-08-19T05:33:38;20.84;71.15
68098;DHT22;54886;47.036;15.466;2022-08-19T05:36:05;20.86;70.75
68098;DHT22;54886;47.036;15.466;2022-08-19T05:38:32;20.91;70.09
68098;DHT22;54886;47.036;15.466;2022-08-19T05:40:58;20.95;70.05
68098;DHT22;54886;47.036;15.466;2022-08-19T05:43:23;20.96;69.30
68098;DHT22;54886;47.036;15.466;2022-08-19T05:45:49;21.02;71.17
68098;DHT22;54886;47.036;15.466;2022-08-19T05:48:15;21.05;71.53
68098;DHT22;54886;47.036;15.466;2022-08-19T05:50:46;21.07;69.25
68098;DHT22;54886;47.036;15.466;2022-08-19T05:53:12;21.09;70.77
68098;DHT22;54886;47.036;15.466;2022-08-19T05:55:37;21.13;70.91
68098;DHT22;54886;47.036;15.466;2022-08-19T05:58:04;21.18;70.67
68098;DHT22;54886;47.036;15.466;2022-08-19T06:00:33;21.19;70.69
68098;DHT22;54886;47.036;15.466;2022-08-19T06:02:58;21.22;71.29
68098;DHT22;54886;47.036;15.466;2022-08-19T06:05:31;21.19;70.28
68098;DHT22;54886;47.036;15.466;2022-08-19T06:07:56;21.22;71.68
68098;DHT22;54886;47.036;15.466;2022-08-19T06:10:24;21.24;70.19
68098;DHT22;54886;47.036;15.466;2022-08-19T06:12:49;21.26;71.85
68098;DHT22;54886;47.036;15.466;2022-08-19T06:15:15;21.33;70.15
68098;DHT22;54886;47.036;15.466;2022-08-19T06:17:41;21.33;71.10
68098;DHT22;54886;47.036;15.466;2022-08-19T06:20:09;21.37;69.70
68098;DHT22;54886;47.036;15.466;2022-08-19T06:22:45;21.43;69.99
68098;DHT22;54886;47.036;15.466;2022-08-19T06:25:12;21.46;70.06
68098;DHT22;54886;47.036;15.466;2022-08-19T06:27:39;21.48;70.17
68098;DHT22;54886;47.036;15.466;2022-08-19T06:30:05;21.50;70.26
68098;DHT22;54886;47.036;15.466;2022-08-19T06:32:31;21.51;70.87
68098;DHT22;54886;47.036;15.466;2022-08-19T06:34:57;21.57;69.60
68098;DHT22;54886;47.036;15.466;2022-08-19T06:37:23;21.59;71.57
68098;DHT22;54886;47.036;15.466;2022-08-19T06:39:48;21.65;71.19
68098;DHT22;54886;47.036;15.466;2022-08-19T06:42:14;21.71;70.07
68098;DHT22;54886;47.036;15.466;2022-08-19T06:44:46;21.74;69.56
68098;DHT22;54886;47.036;15.466;2022-08-19T06:47:19;21.81;69.00
68098;DHT22;54886;47.036;15.466;2022-08-19T06:49:44;21.86;69.34
68098;DHT22;54886;47.036;15.466;2022-08-19T06:52:10;21.91;68.73
68098;DHT22;54886;47.036;15.466;2022-08-19T06:54:41;21.94;68.13
68098;DHT22;54886;47.036;15.466;2022-08-19T06:57:07;21.99;68.38
68098;DHT22;54886;47.036;15.466;2022-08-19T06:59:38;21.99;66.40
68098;DHT22;54886;47.036;15.466;2022-08-19T07:02:06;22.01;66.04
68098;DHT22;54886;47.036;15.466;2022-08-19T07:04:34;22.02;66.92
68098;DHT22;54886;47.036;15.466;2022-08-19T07:07:01;22.06;68.16
68098;DHT22;54886;47.036;15.466;2022-08-19T07:09:27;22.06;65.92
68098;DHT22;54886;47.036;15.466;2022-08-19T07:11:54;22.06;69.17
68098;DHT22;54886;47.036;15.466;2022-08-19T07:14:23;22.10;68.53
68098;DHT22;54886;47.036;15.466;2022-08-19T07:16:51;22.13;68.68
68098;DHT22;54886;47.036;15.466;2022-08-19T07:19:18;22.13;68.64
68098;DHT22;54886;47.036;15.466;2022-08-19T07:21:43;22.13;68.88
68098;DHT22;54886;47.036;15.466;2022-08-19T07:24:09;22.16;66.37
68098;DHT22;54886;47.036;15.466;2022-08-19T07:26:39;22.17;68.57
68098;DHT22;54886;47.036;15.466;2022-08-19T07:29:05;22.16;69.79
68098;DHT22;54886;47.036;15.466;2022-08-19T07:31:31;22.14;68.61
68098;DHT22;54886;47.036;15.466;2022-08-19T07:34:01;22.17;69.17
68098;DHT22;54886;47.036;15.466;2022-08-19T07:36:28;22.22;69.26
68098;DHT22;54886;47.036;15.466;2022-08-19T07:38:58;22.24;66.54
68098;DHT22;54886;47.036;15.466;2022-08-19T07:41:26;22.24;66.20
68098;DHT22;54886;47.036;15.466;2022-08-19T07:43:54;22.29;66.34
68098;DHT22;54886;47.036;15.466;2022-08-19T07:46:20;22.29;65.30
68098;DHT22;54886;47.036;15.466;2022-08-19T07:48:47;22.26;64.94
68098;DHT22;54886;47.036;15.466;2022-08-19T07:51:16;22.30;64.70
68098;DHT22;54886;47.036;15.466;2022-08-19T07:53:42;22.29;64.27
68098;DHT22;54886;47.036;15.466;2022-08-19T07:56:12;22.30;65.01
68098;DHT22;54886;47.036;15.466;2022-08-19T07:58:40;22.29;65.59
68098;DHT22;54886;47.036;15.466;2022-08-19T08:01:07;22.26;65.42
68098;DHT22;54886;47.036;15.466;2022-08-19T08:03:33;22.24;65.84
68098;DHT22;54886;47.036;15.466;2022-08-19T08:06:17;22.24;66.40
68098;DHT22;54886;47.036;15.466;2022-08-19T08:09:03;22.22;67.93
68098;DHT22;54886;47.036;15.466;2022-08-19T08:11:44;22.22;69.78
68098;DHT22;54886;47.036;15.466;2022-08-19T08:14:19;22.19;70.45
68098;DHT22;54886;47.036;15.466;2022-08-19T08:16:45;22.12;72.20
68098;DHT22;54886;47.036;15.466;2022-08-19T08:19:11;22.09;70.27
68098;DHT22;54886;47.036;15.466;2022-08-19T08:21:40;22.10;71.26
68098;DHT22;54886;47.036;15.466;2022-08-19T08:24:06;22.06;70.88
68098;DHT22;54886;47.036;15.466;2022-08-19T08:26:31;22.03;72.02
68098;DHT22;54886;47.036;15.466;2022-08-19T08:28:57;22.03;70.77
68098;DHT22;54886;47.036;15.466;2022-08-19T08:31:22;22.06;72.77
68098;DHT22;54886;47.036;15.466;2022-08-19T08:33:48;22.09;72.86
68098;DHT22;54886;47.036;15.466;2022-08-19T08:36:14;22.10;70.73
68098;DHT22;54886;47.036;15.466;2022-08-19T08:38:41;22.12;71.90
68098;DHT22;54886;47.036;15.466;2022-08-19T08:41:37;22.12;70.52
68098;DHT22;54886;47.036;15.466;2022-08-19T08:44:06;22.09;76.24
68098;DHT22;54886;47.036;15.466;2022-08-19T08:46:46;22.13;74.09
68098;DHT22;54886;47.036;15.466;2022-08-19T08:51:47;22.14;73.20
68098;DHT22;54886;47.036;15.466;2022-08-19T08:54:18;22.20;71.15
68098;DHT22;54886;47.036;15.466;2022-08-19T08:56:45;22.22;75.54
68098;DHT22;54886;47.036;15.466;2022-08-19T09:01:49;22.28;76.81
68098;DHT22;54886;47.036;15.466;2022-08-19T09:04:15;22.32;75.01
68098;DHT22;54886;47.036;15.466;2022-08-19T09:09:17;22.33;76.74
68098;DHT22;54886;47.036;15.466;2022-08-19T09:17:08;22.37;76.64
68098;DHT22;54886;47.036;15.466;2022-08-19T09:19:53;22.35;74.19
68098;DHT22;54886;47.036;15.466;2022-08-19T09:22:19;22.35;76.26
68098;DHT22;54886;47.036;15.466;2022-08-19T09:24:51;22.35;74.52
68098;DHT22;54886;47.036;15.466;2022-08-19T09:27:20;22.40;74.88
68098;DHT22;54886;47.036;15.466;2022-08-19T09:29:46;22.43;74.22
68098;DHT22;54886;47.036;15.466;2022-08-19T09:32:14;22.44;73.96
68098;DHT22;54886;47.036;15.466;2022-08-19T09:34:39;22.50;74.24
68098;DHT22;54886;47.036;15.466;2022-08-19T09:37:05;22.50;73.95
68098;DHT22;54886;47.036;15.466;2022-08-19T09:39:31;22.57;71.06
68098;DHT22;54886;47.036;15.466;2022-08-19T09:41:56;22.64;75.53
68098;DHT22;54886;47.036;15.466;2022-08-19T09:44:22;22.68;68.17
68098;DHT22;54886;47.036;15.466;2022-08-19T09:46:48;22.71;72.50
68098;DHT22;54886;47.036;15.466;2022-08-19T09:49:15;22.72;73.24
68098;DHT22;54886;47.036;15.466;2022-08-19T09:51:42;22.78;71.99
68098;DHT22;54886;47.036;15.466;2022-08-19T09:54:08;22.78;71.78
68098;DHT22;54886;47.036;15.466;2022-08-19T09:56:33;22.83;70.60
68098;DHT22;54886;47.036;15.466;2022-08-19T09:58:59;22.83;70.33
68098;DHT22;54886;47.036;15.466;2022-08-19T10:01:27;22.84;70.21
68098;DHT22;54886;47.036;15.466;2022-08-19T10:03:55;22.83;72.76
68098;DHT22;54886;47.036;15.466;2022-08-19T10:06:23;22.84;73.67
68098;DHT22;54886;47.036;15.466;2022-08-19T10:08:50;22.84;70.43
68098;DHT22;54886;47.036;15.466;2022-08-19T10:11:17;22.87;74.26
68098;DHT22;54886;47.036;15.466;2022-08-19T10:13:44;22.90;72.51
68098;DHT22;54886;47.036;15.466;2022-08-19T10:16:14;22.91;69.32
68098;DHT22;54886;47.036;15.466;2022-08-19T10:18:41;22.94;69.41
68098;DHT22;54886;47.036;15.466;2022-08-19T10:23:44;22.94;72.27
68098;DHT22;54886;47.036;15.466;2022-08-19T10:26:12;22.96;71.85
68098;DHT22;54886;47.036;15.466;2022-08-19T10:28:38;22.98;72.43
68098;DHT22;54886;47.036;15.466;2022-08-19T10:31:15;22.99;72.57
68098;DHT22;54886;47.036;15.466;2022-08-19T10:33:42;23.01;73.13
68098;DHT22;54886;47.036;15.466;2022-08-19T10:36:21;23.02;71.91
68098;DHT22;54886;47.036;15.466;2022-08-19T10:38:50;22.99;74.19
68098;DHT22;54886;47.036;15.466;2022-08-19T10:41:21;23.05;73.79
68098;DHT22;54886;47.036;15.466;2022-08-19T10:43:51;23.08;74.57
68098;DHT22;54886;47.036;15.466;2022-08-19T10:46:20;23.18;73.33
68098;DHT22;54886;47.036;15.466;2022-08-19T10:48:46;23.24;73.22
68098;DHT22;54886;47.036;15.466;2022-08-19T10:51:12;23.26;73.94
68098;DHT22;54886;47.036;15.466;2022-08-19T10:53:56;23.29;73.17
68098;DHT22;54886;47.036;15.466;2022-08-19T10:56:23;23.31;72.77
68098;DHT22;54886;47.036;15.466;2022-08-19T10:59:07;23.34;72.40
68098;DHT22;54886;47.036;15.466;2022-08-19T11:01:34;23.36;71.65
68098;DHT22;54886;47.036;15.466;2022-08-19T11:04:01;23.36;71.59
68098;DHT22;54886;47.036;15.466;2022-08-19T11:06:27;23.43;72.13
68098;DHT22;54886;47.036;15.466;2022-08-19T11:08:56;23.46;71.49
68098;DHT22;54886;47.036;15.466;2022-08-19T11:11:22;23.51;71.96
68098;DHT22;54886;47.036;15.466;2022-08-19T11:13:48;23.57;72.15
68098;DHT22;54886;47.036;15.466;2022-08-19T11:16:22;23.60;72.96
68098;DHT22;54886;47.036;15.466;2022-08-19T11:18:50;23.64;72.65
68098;DHT22;54886;47.036;15.466;2022-08-19T11:21:28;23.70;72.21
68098;DHT22;54886;47.036;15.466;2022-08-19T11:23:56;23.73;72.13
68098;DHT22;54886;47.036;15.466;2022-08-19T11:26:23;23.77;71.97
68098;DHT22;54886;47.036;15.466;2022-08-19T11:28:50;23.74;71.49
68098;DHT22;54886;47.036;15.466;2022-08-19T11:31:27;23.75;69.56
68098;DHT22;54886;47.036;15.466;2022-08-19T11:33:56;23.75;69.68
68098;DHT22;54886;47.036;15.466;2022-08-19T11:36:21;23.77;70.23
68098;DHT22;54886;47.036;15.466;2022-08-19T11:38:49;23.77;70.70
68098;DHT22;54886;47.036;15.466;2022-08-19T11:41:16;23.79;71.48
68098;DHT22;54886;47.036;15.466;2022-08-19T11:43:42;23.81;71.98
68098;DHT22;54886;47.036;15.466;2022-08-19T11:46:11;23.86;70.52
68098;DHT22;54886;47.036;15.466;2022-08-19T11:48:37;23.94;71.03
68098;DHT22;54886;47.036;15.466;2022-08-19T11:51:13;24.05;70.19
68098;DHT22;54886;47.036;15.466;2022-08-19T11:53:40;24.05;69.83
68098;DHT22;54886;47.036;15.466;2022-08-19T11:56:07;24.08;69.53
68098;DHT22;54886;47.036;15.466;2022-08-19T11:58:33;24.12;68.20
68098;DHT22;54886;47.036;15.466;2022-08-19T12:00:59;24.18;68.12
68098;DHT22;54886;47.036;15.466;2022-08-19T12:03:26;24.19;68.21
68098;DHT22;54886;47.036;15.466;2022-08-19T12:05:53;24.28;67.03
68098;DHT22;54886;47.036;15.466;2022-08-19T12:08:18;24.33;66.36
68098;DHT22;54886;47.036;15.466;2022-08-19T12:10:44;24.37;66.08
68098;DHT22;54886;47.036;15.466;2022-08-19T12:13:11;24.39;64.58
68098;DHT22;54886;47.036;15.466;2022-08-19T12:15:39;24.46;65.25
68098;DHT22;54886;47.036;15.466;2022-08-19T12:18:10;24.53;65.32
68098;DHT22;54886;47.036;15.466;2022-08-19T12:20:38;24.53;64.50
68098;DHT22;54886;47.036;15.466;2022-08-19T12:23:05;24.61;62.88
68098;DHT22;54886;47.036;15.466;2022-08-19T12:25:31;24.70;63.14
68098;DHT22;54886;47.036;15.466;2022-08-19T12:27:57;24.74;61.73
68098;DHT22;54886;47.036;15.466;2022-08-19T12:30:23;24.78;61.96
68098;DHT22;54886;47.036;15.466;2022-08-19T12:32:48;24.87;60.83
68098;DHT22;54886;47.036;15.466;2022-08-19T12:35:16;24.91;60.72
68098;DHT22;54886;47.036;15.466;2022-08-19T12:37:42;24.91;60.61
68098;DHT22;54886;47.036;15.466;2022-08-19T12:40:10;24.96;60.60
68098;DHT22;54886;47.036;15.466;2022-08-19T12:42:38;24.96;60.01
68098;DHT22;54886;47.036;15.466;2022-08-19T12:45:08;25.08;61.02
68098;DHT22;54886;47.036;15.466;2022-08-19T12:47:34;25.18;59.88
68098;DHT22;54886;47.036;15.466;2022-08-19T12:49:59;25.29;60.22
68098;DHT22;54886;47.036;15.466;2022-08-19T12:52:26;25.32;60.11
68098;DHT22;54886;47.036;15.466;2022-08-19T12:54:55;25.37;59.04
68098;DHT22;54886;47.036;15.466;2022-08-19T12:57:22;25.45;58.33
68098;DHT22;54886;47.036;15.466;2022-08-19T12:59:52;25.47;58.12
68098;DHT22;54886;47.036;15.466;2022-08-19T13:02:18;25.51;55.94
68098;DHT22;54886;47.036;15.466;2022-08-19T13:04:44;25.50;54.42
68098;DHT22;54886;47.036;15.466;2022-08-19T13:07:09;25.51;55.11
68098;DHT22;54886;47.036;15.466;2022-08-19T13:09:35;25.50;56.11
68098;DHT22;54886;47.036;15.466;2022-08-19T13:12:01;25.51;56.08
68098;DHT22;54886;47.036;15.466;2022-08-19T13:14:28;25.54;57.57
68098;DHT22;54886;47.036;15.466;2022-08-19T13:16:55;25.56;56.91
68098;DHT22;54886;47.036;15.466;2022-08-19T13:19:22;25.59;56.32
68098;DHT22;54886;47.036;15.466;2022-08-19T13:21:51;25.57;57.24
68098;DHT22;54886;47.036;15.466;2022-08-19T13:24:17;25.63;56.29
68098;DHT22;54886;47.036;15.466;2022-08-19T13:26:43;25.62;56.04
68098;DHT22;54886;47.036;15.466;2022-08-19T13:29:09;25.60;54.64
68098;DHT22;54886;47.036;15.466;2022-08-19T13:31:53;25.63;55.62
68098;DHT22;54886;47.036;15.466;2022-08-19T13:34:37;25.73;56.72
68098;DHT22;54886;47.036;15.466;2022-08-19T13:37:03;25.73;55.85
68098;DHT22;54886;47.036;15.466;2022-08-19T13:39:33;25.74;55.58
68098;DHT22;54886;47.036;15.466;2022-08-19T13:41:59;25.84;55.88
68098;DHT22;54886;47.036;15.466;2022-08-19T13:44:25;25.92;56.01
68098;DHT22;54886;47.036;15.466;2022-08-19T13:46:51;25.98;55.83
68098;DHT22;54886;47.036;15.466;2022-08-19T13:49:18;26.05;54.90
68098;DHT22;54886;47.036;15.466;2022-08-19T13:51:45;26.12;54.81
68098;DHT22;54886;47.036;15.466;2022-08-19T13:54:11;26.18;53.46
68098;DHT22;54886;47.036;15.466;2022-08-19T13:56:42;26.15;53.76
68098;DHT22;54886;47.036;15.466;2022-08-19T13:59:08;26.21;53.48
68098;DHT22;54886;47.036;15.466;2022-08-19T14:01:33;26.29;52.50
68098;DHT22;54886;47.036;15.466;2022-08-19T14:04:00;26.35;53.12
68098;DHT22;54886;47.036;15.466;2022-08-19T14:06:26;26.39;52.78
68098;DHT22;54886;47.036;15.466;2022-08-19T14:08:51;26.43;51.68
68098;DHT22;54886;47.036;15.466;2022-08-19T14:11:18;26.47;52.10
68098;DHT22;54886;47.036;15.466;2022-08-19T14:13:43;26.55;52.90
68098;DHT22;54886;47.036;15.466;2022-08-19T14:16:10;26.56;52.83
68098;DHT22;54886;47.036;15.466;2022-08-19T14:18:36;26.59;51.64
68098;DHT22;54886;47.036;15.466;2022-08-19T14:21:02;26.60;51.39
68098;DHT22;54886;47.036;15.466;2022-08-19T14:23:30;26.63;52.30
68098;DHT22;54886;47.036;15.466;2022-08-19T14:26:07;26.66;52.21
68098;DHT22;54886;47.036;15.466;2022-08-19T14:28:32;26.69;52.50
68098;DHT22;54886;47.036;15.466;2022-08-19T14:30:58;26.74;51.80
68098;DHT22;54886;47.036;15.466;2022-08-19T14:33:23;26.79;51.59
68098;DHT22;54886;47.036;15.466;2022-08-19T14:35:49;26.80;51.79
68098;DHT22;54886;47.036;15.466;2022-08-19T14:38:19;26.80;51.49
68098;DHT22;54886;47.036;15.466;2022-08-19T14:40:45;26.86;52.75
68098;DHT22;54886;47.036;15.466;2022-08-19T14:43:10;26.87;51.25
68098;DHT22;54886;47.036;15.466;2022-08-19T14:45:38;26.90;51.17
68098;DHT22;54886;47.036;15.466;2022-08-19T14:48:04;26.94;50.65
68098;DHT22;54886;47.036;15.466;2022-08-19T14:50:30;26.90;51.40
68098;DHT22;54886;47.036;15.466;2022-08-19T14:53:05;26.91;50.97
68098;DHT22;54886;47.036;15.466;2022-08-19T14:55:31;26.95;51.02
68098;DHT22;54886;47.036;15.466;2022-08-19T14:57:57;26.98;50.79
68098;DHT22;54886;47.036;15.466;2022-08-19T15:00:24;27.04;51.12
68098;DHT22;54886;47.036;15.466;2022-08-19T15:02:50;27.02;50.52
68098;DHT22;54886;47.036;15.466;2022-08-19T15:05:16;27.02;51.42
68098;DHT22;54886;47.036;15.466;2022-08-19T15:07:41;27.05;50.79
68098;DHT22;54886;47.036;15.466;2022-08-19T15:10:08;27.07;50.08
68098;DHT22;54886;47.036;15.466;2022-08-19T15:12:35;27.02;50.47
68098;DHT22;54886;47.036;15.466;2022-08-19T15:15:01;27.02;50.90
68098;DHT22;54886;47.036;15.466;2022-08-19T15:17:27;27.01;52.23
68098;DHT22;54886;47.036;15.466;2022-08-19T15:19:55;27.02;51.22
68098;DHT22;54886;47.036;15.466;2022-08-19T15:22:20;27.07;52.07
68098;DHT22;54886;47.036;15.466;2022-08-19T15:24:46;27.08;52.62
68098;DHT22;54886;47.036;15.466;2022-08-19T15:27:12;27.08;51.52
68098;DHT22;54886;47.036;15.466;2022-08-19T15:29:38;27.01;51.87
68098;DHT22;54886;47.036;15.466;2022-08-19T15:32:06;26.95;51.70
68098;DHT22;54886;47.036;15.466;2022-08-19T15:34:32;26.94;52.76
68098;DHT22;54886;47.036;15.466;2022-08-19T15:36:58;26.91;53.49